Time;durP1;ratioP1;P1;durP2;ratioP2;P2;SDS_P1;SDS_P2;PMS_P1;PMS_P2;Temp;Humidity;BMP_temperature;BMP_pressure;BME280_temperature;BME280_humidity;BME280_pressure;Samples;Min_cycle;Max_cycle;Signal;HPM_P1;HPM_P2
2021/05/10 00:00:50;;;;;;;3.90;2.40;;;;;;;;;;3615090;39;20428;-74
2021/05/10 00:03:16;;;;;;;2.67;2.47;;;;;;;;;;3614727;39;20434;-75
2021/05/10 00:05:43;;;;;;;6.53;3.00;;;;;;;;;;3604715;39;20521;-75
2021/05/10 00:08:09;;;;;;;3.40;2.23;;;;;;;;;;3611963;39;20450;-75
2021/05/10 00:10:37;;;;;;;4.33;2.50;;;;;;;;;;3613802;39;20437;-75
2021/05/10 00:13:04;;;;;;;7.50;2.80;;;;;;;;;;3614108;39;20410;-75
2021/05/10 00:15:31;;;;;;;2.50;2.00;;;;;;;;;;3606141;39;20838;-75
2021/05/10 00:18:03;;;;;;;3.43;2.50;;;;;;;;;;3604856;39;20428;-75
2021/05/10 00:20:30;;;;;;;2.67;2.47;;;;;;;;;;3616185;39;20392;-75
2021/05/10 00:22:57;;;;;;;2.77;2.40;;;;;;;;;;3613223;39;20472;-75
2021/05/10 00:25:24;;;;;;;2.60;1.90;;;;;;;;;;3613422;39;20401;-75
2021/05/10 00:27:50;;;;;;;2.80;2.60;;;;;;;;;;3616181;39;21548;-75
2021/05/10 00:30:16;;;;;;;2.30;2.10;;;;;;;;;;3605254;39;20437;-75
2021/05/10 00:32:43;;;;;;;2.87;2.57;;;;;;;;;;3596369;39;20446;-75
2021/05/10 00:35:09;;;;;;;2.43;2.23;;;;;;;;;;3606027;39;20455;-75
2021/05/10 00:37:35;;;;;;;2.57;2.10;;;;;;;;;;3613811;39;20447;-75
2021/05/10 00:40:02;;;;;;;3.53;2.40;;;;;;;;;;3617936;39;21038;-75
2021/05/10 00:42:28;;;;;;;3.67;2.03;;;;;;;;;;3599133;39;20460;-75
2021/05/10 00:44:54;;;;;;;6.43;2.10;;;;;;;;;;3605716;39;20513;-75
2021/05/10 00:47:20;;;;;;;3.00;2.17;;;;;;;;;;3614910;39;20483;-75
2021/05/10 00:49:46;;;;;;;4.13;2.57;;;;;;;;;;3596829;39;20412;-75
2021/05/10 00:52:12;;;;;;;5.20;2.17;;;;;;;;;;3616817;39;20500;-75
2021/05/10 00:54:38;;;;;;;4.40;2.10;;;;;;;;;;3618301;39;20417;-75
2021/05/10 00:57:05;;;;;;;2.73;1.80;;;;;;;;;;3607884;39;21229;-75
2021/05/10 00:59:31;;;;;;;3.70;2.80;;;;;;;;;;3617717;39;20387;-75
2021/05/10 01:01:58;;;;;;;3.30;3.07;;;;;;;;;;3616660;39;20409;-76
2021/05/10 01:04:24;;;;;;;3.47;2.07;;;;;;;;;;3603076;39;20422;-75
2021/05/10 01:06:50;;;;;;;4.70;2.83;;;;;;;;;;3609571;39;20429;-75
2021/05/10 01:09:16;;;;;;;2.93;2.63;;;;;;;;;;3609085;39;20449;-76
2021/05/10 01:11:42;;;;;;;3.27;2.20;;;;;;;;;;3606723;39;20489;-75
2021/05/10 01:14:08;;;;;;;3.30;2.30;;;;;;;;;;3608548;39;20867;-75
2021/05/10 01:16:35;;;;;;;2.90;2.53;;;;;;;;;;3597384;39;20436;-75
2021/05/10 01:19:01;;;;;;;15.27;3.53;;;;;;;;;;3617316;39;20415;-75
2021/05/10 01:21:28;;;;;;;6.67;2.30;;;;;;;;;;3606101;39;20540;-75
2021/05/10 01:23:54;;;;;;;5.53;2.40;;;;;;;;;;3618724;39;20410;-75
2021/05/10 01:26:21;;;;;;;4.27;2.20;;;;;;;;;;3616588;39;20445;-75
2021/05/10 01:28:47;;;;;;;3.33;2.47;;;;;;;;;;3616026;39;20513;-75
2021/05/10 01:31:15;;;;;;;2.77;2.03;;;;;;;;;;3618116;39;20417;-75
2021/05/10 01:33:41;;;;;;;3.23;2.50;;;;;;;;;;3609335;39;20394;-75
2021/05/10 01:36:08;;;;;;;2.67;2.47;;;;;;;;;;3599985;39;20727;-75
2021/05/10 01:38:34;;;;;;;9.00;2.63;;;;;;;;;;3616545;39;20482;-75
2021/05/10 01:41:00;;;;;;;2.97;2.63;;;;;;;;;;3618028;39;20449;-75
2021/05/10 01:43:26;;;;;;;9.33;2.47;;;;;;;;;;3618227;39;20468;-75
2021/05/10 01:45:52;;;;;;;5.00;2.53;;;;;;;;;;3604499;39;21561;-75
2021/05/10 01:48:18;;;;;;;2.17;2.00;;;;;;;;;;3616785;39;20393;-75
2021/05/10 01:50:46;;;;;;;2.90;2.50;;;;;;;;;;3607805;39;21355;-75
2021/05/10 01:53:13;;;;;;;3.00;2.00;;;;;;;;;;3616056;39;20423;-75
2021/05/10 01:55:39;;;;;;;2.27;2.17;;;;;;;;;;3617161;39;20401;-75
2021/05/10 01:58:06;;;;;;;2.50;2.30;;;;;;;;;;3609005;39;20446;-75
2021/05/10 02:00:34;;;;;;;2.80;2.17;;;;;;;;;;3617134;39;20406;-75
2021/05/10 02:03:09;;;;;;;6.83;2.40;;;;;;;;;;3608513;39;20457;-75
2021/05/10 02:05:36;;;;;;;2.60;1.90;;;;;;;;;;3607510;39;20504;-75
2021/05/10 02:08:03;;;;;;;3.53;2.33;;;;;;;;;;3619166;39;20794;-75
2021/05/10 02:10:32;;;;;;;2.37;2.17;;;;;;;;;;3615373;39;20409;-75
2021/05/10 02:12:58;;;;;;;4.57;2.33;;;;;;;;;;3617373;39;20394;-75
2021/05/10 02:15:29;;;;;;;2.60;2.13;;;25.30;61.00;;;;;;3606476;39;20428;-75
2021/05/10 02:17:55;;;;;;;3.33;2.03;;;;;;;;;;3608064;39;20409;-75
2021/05/10 02:20:22;;;;;;;2.83;1.67;;;;;;;;;;3617326;39;20495;-75
2021/05/10 02:22:51;;;;;;;3.63;2.23;;;;;;;;;;3616222;39;20828;-75
2021/05/10 02:25:23;;;;;;;2.23;2.03;;;22.00;67.80;;;;;;3607531;39;20451;-75
2021/05/10 02:27:49;;;;;;;2.67;2.50;;;21.80;66.90;;;;;;3607636;39;20418;-75
2021/05/10 02:30:16;;;;;;;3.93;2.10;;;;;;;;;;3608358;39;20500;-75
2021/05/10 02:32:42;;;;;;;6.73;1.97;;;;;;;;;;3616431;39;20443;-75
2021/05/10 02:35:09;;;;;;;3.30;2.40;;;;;;;;;;3617756;39;22006;-75
2021/05/10 02:37:35;;;;;;;3.33;2.70;;;;;;;;;;3617123;39;20438;-75
2021/05/10 02:40:01;;;;;;;2.83;2.17;;;;;;;;;;3616587;39;20826;-75
2021/05/10 02:42:27;;;;;;;3.33;2.23;;;;;;;;;;3619015;39;20404;-75
2021/05/10 02:44:53;;;;;;;5.63;2.00;;;;;;;;;;3617598;39;20402;-75
2021/05/10 02:47:19;;;;;;;2.93;2.73;;;;;;;;;;3617051;39;20475;-75
2021/05/10 02:49:46;;;;;;;3.83;2.70;;;;;;;;;;3615471;39;20501;-75
2021/05/10 02:52:12;;;;;;;3.20;2.87;;;;;;;;;;3607096;39;20413;-75
2021/05/10 02:54:39;;;;;;;2.57;1.73;;;;;;;;;;3605692;39;20760;-75
2021/05/10 02:57:05;;;;;;;3.40;2.03;;;;;;;;;;3599801;39;20401;-75
2021/05/10 02:59:31;;;;;;;2.30;2.10;;;;;;;;;;3607328;39;20840;-75
2021/05/10 03:01:57;;;;;;;3.17;2.87;;;;;;;;;;3600121;39;20428;-75
2021/05/10 03:04:23;;;;;;;4.07;2.20;;;;;;;;;;3618485;39;20427;-75
2021/05/10 03:06:49;;;;;;;2.03;1.83;;;;;;;;;;3599781;39;20441;-75
2021/05/10 03:09:16;;;;;;;3.50;2.70;;;;;;;;;;3617061;39;20470;-75
2021/05/10 03:11:42;;;;;;;3.10;2.30;;;;;;;;;;3616646;39;20407;-75
2021/05/10 03:14:09;;;;;;;4.13;2.67;;;;;;;;;;3617585;39;20486;-75
2021/05/10 03:16:35;;;;;;;3.90;2.23;;;;;;;;;;3617346;39;20385;-75
2021/05/10 03:19:06;;;;;;;4.70;2.80;;;;;;;;;;3605687;39;20409;-75
2021/05/10 03:21:32;;;;;;;5.13;2.50;;;;;;;;;;3606014;39;20425;-75
2021/05/10 03:23:58;;;;;;;2.80;2.60;;;;;;;;;;3599807;39;20469;-75
2021/05/10 03:26:24;;;;;;;3.87;2.80;;;;;;;;;;3605274;39;20819;-75
2021/05/10 03:28:52;;;;;;;3.97;2.37;;;;;;;;;;3615285;39;20786;-75
2021/05/10 03:31:18;;;;;;;3.30;2.40;;;;;;;;;;3597500;39;20413;-75
2021/05/10 03:33:44;;;;;;;8.63;2.47;;;;;;;;;;3607196;39;20802;-75
2021/05/10 03:36:10;;;;;;;4.83;1.97;;;;;;;;;;3616533;39;20441;-75
2021/05/10 03:38:38;;;;;;;3.73;2.50;;;;;;;;;;3616046;39;20414;-75
2021/05/10 03:41:04;;;;;;;5.17;2.40;;;;;;;;;;3607115;39;20822;-75
2021/05/10 03:43:30;;;;;;;3.07;2.87;;;;;;;;;;3606830;39;20510;-75
2021/05/10 03:45:56;;;;;;;3.73;2.60;;;;;;;;;;3606952;39;20403;-75
2021/05/10 03:48:22;;;;;;;5.73;2.47;;;;;;;;;;3612557;39;20428;-75
2021/05/10 03:50:48;;;;;;;4.07;2.30;;;;;;;;;;3602761;39;20722;-75
2021/05/10 03:53:14;;;;;;;2.07;1.97;;;;;;;;;;3616854;39;20714;-74
2021/05/10 03:55:41;;;;;;;4.00;2.60;;;;;;;;;;3617697;39;21013;-74
2021/05/10 03:58:08;;;;;;;2.90;2.10;;;;;;;;;;3615964;39;20457;-74
2021/05/10 04:00:34;;;;;;;3.40;2.50;;;;;;;;;;3616542;39;20437;-74
2021/05/10 04:03:01;;;;;;;3.23;2.67;;;;;;;;;;3598702;39;20433;-74
2021/05/10 04:08:04;;;;;;;4.80;2.40;;;;;;;;;;3616863;39;20441;-74
2021/05/10 04:16:00;;;;;;;3.40;2.30;;;;;;;;;;3618846;39;20431;-74
2021/05/10 04:18:26;;;;;;;3.00;1.93;;;;;;;;;;3616608;39;20409;-75
2021/05/10 04:20:52;;;;;;;2.33;2.13;;;;;;;;;;3617768;39;20524;-74
2021/05/10 04:23:21;;;;;;;3.37;2.47;;;;;;;;;;3609125;39;20801;-74
2021/05/10 04:25:48;;;;;;;3.10;2.60;;;;;;;;;;3607492;39;20390;-74
2021/05/10 04:28:15;;;;;;;2.10;2.00;;;;;;;;;;3617092;39;20397;-74
2021/05/10 04:30:41;;;;;;;3.73;2.33;;;;;;;;;;3607422;39;20414;-75
2021/05/10 04:33:07;;;;;;;3.20;2.10;;;;;;;;;;3609787;39;20413;-75
2021/05/10 04:35:34;;;;;;;3.87;2.60;;;;;;;;;;3616482;39;20435;-77
2021/05/10 04:38:04;;;;;;;2.60;2.40;;;;;;;;;;3600972;39;20435;-75
2021/05/10 04:40:30;;;;;;;2.10;2.00;;;;;;;;;;3605439;39;20540;-74
2021/05/10 04:42:56;;;;;;;4.70;2.17;;;;;;;;;;3619344;39;20424;-74
2021/05/10 04:45:22;;;;;;;6.60;1.70;;;;;;;;;;3616945;39;20390;-74
2021/05/10 04:47:49;;;;;;;3.00;2.37;;;;;;;;;;3618151;39;20541;-74
2021/05/10 04:50:15;;;;;;;2.53;2.33;;;;;;;;;;3608350;39;20553;-74
2021/05/10 04:52:41;;;;;;;3.17;2.87;;;;;;;;;;3616920;39;20484;-74
2021/05/10 04:55:10;;;;;;;5.20;2.63;;;;;;;;;;3617364;39;20803;-74
2021/05/10 04:57:36;;;;;;;2.93;2.23;;;;;;;;;;3614553;39;20402;-74
2021/05/10 05:00:05;;;;;;;3.57;2.47;;;;;;;;;;3607562;39;20521;-74
2021/05/10 05:02:31;;;;;;;2.57;2.17;;;;;;;;;;3617003;39;20429;-75
2021/05/10 05:04:57;;;;;;;3.07;2.60;;;;;;;;;;3607659;39;20416;-75
2021/05/10 05:07:23;;;;;;;4.50;3.10;;;;;;;;;;3617653;39;20449;-75
2021/05/10 05:09:49;;;;;;;5.43;2.33;;;;;;;;;;3610826;39;20417;-75
2021/05/10 05:12:16;;;;;;;5.30;2.53;;;;;;;;;;3618222;39;20402;-74
2021/05/10 05:14:42;;;;;;;3.60;2.10;;;;;;;;;;3611874;39;20441;-74
2021/05/10 05:17:08;;;;;;;3.50;3.20;;;;;;;;;;3609861;39;21276;-74
2021/05/10 05:19:34;;;;;;;7.00;2.50;;;;;;;;;;3608114;39;20428;-74
2021/05/10 05:22:00;;;;;;;3.80;2.63;;;;;;;;;;3601244;39;21227;-74
2021/05/10 05:24:26;;;;;;;3.60;2.60;;;;;;;;;;3617796;39;20514;-74
2021/05/10 05:26:52;;;;;;;6.50;2.70;;;;;;;;;;3616723;39;20506;-74
2021/05/10 05:29:22;;;;;;;2.80;2.60;;;;;;;;;;3608964;39;20457;-74
2021/05/10 05:31:48;;;;;;;5.50;2.47;;;;;;;;;;3597097;39;20440;-75
2021/05/10 05:34:14;;;;;;;5.13;2.77;;;;;;;;;;3606915;39;20438;-74
2021/05/10 05:36:40;;;;;;;6.03;2.90;;;;;;;;;;3604327;39;20919;-74
2021/05/10 05:39:07;;;;;;;3.33;2.80;;;;;;;;;;3609639;39;20420;-74
2021/05/10 05:41:33;;;;;;;7.43;3.33;;;;;;;;;;3613177;39;21341;-77
2021/05/10 05:44:00;;;;;;;4.10;3.10;;;;;;;;;;3610229;39;20386;-74
2021/05/10 05:46:28;;;;;;;3.33;2.43;;;;;;;;;;3614063;39;21313;-74
2021/05/10 05:48:55;;;;;;;2.90;2.23;;;;;;;;;;3590901;39;20439;-74
2021/05/10 05:51:21;;;;;;;6.53;2.83;;;;;;;;;;3590285;39;20414;-74
2021/05/10 05:53:48;;;;;;;7.53;2.60;;;;;;;;;;3594700;39;20490;-74
2021/05/10 05:56:14;;;;;;;3.67;2.13;;;;;;;;;;3604740;39;20400;-74
2021/05/10 05:58:40;;;;;;;3.53;2.27;;;;;;;;;;3597848;39;20746;-74
2021/05/10 06:01:06;;;;;;;5.50;2.10;;;;;;;;;;3592949;39;20414;-74
2021/05/10 06:03:32;;;;;;;2.80;2.60;;;;;;;;;;3592519;39;21634;-74
2021/05/10 06:05:58;;;;;;;2.40;2.20;;;;;;;;;;3597130;39;20415;-74
2021/05/10 06:08:24;;;;;;;2.30;2.10;;;;;;;;;;3605363;39;20425;-74
2021/05/10 06:10:50;;;;;;;5.00;2.90;;;;;;;;;;3594132;39;20447;-73
2021/05/10 06:13:16;;;;;;;5.60;2.47;;;;;;;;;;3606656;39;20814;-74
2021/05/10 06:15:42;;;;;;;6.80;2.90;;;19.30;99.90;;;;;;3604137;39;20482;-74
2021/05/10 06:18:09;;;;;;;3.53;3.10;;;19.10;99.90;;;;;;3604963;39;20493;-74
2021/05/10 06:20:35;;;;;;;4.60;2.80;;;;;;;;;;3598651;39;20413;-75
2021/05/10 06:23:04;;;;;;;4.83;2.57;;;;;;;;;;3600060;39;20394;-75
2021/05/10 06:25:30;;;;;;;8.57;3.07;;;;;;;;;;3604948;39;20505;-75
2021/05/10 06:27:56;;;;;;;2.57;2.37;;;;;;;;;;3604566;39;20428;-74
2021/05/10 06:30:23;;;;;;;3.03;2.73;;;;;;;;;;3590097;39;20425;-75
2021/05/10 06:32:53;;;;;;;3.43;2.37;;;;;;;;;;3604616;39;20407;-74
2021/05/10 06:35:20;;;;;;;4.70;2.80;;;;;;;;;;3597936;39;20406;-75
2021/05/10 06:37:46;;;;;;;3.47;2.67;;;;;;;;;;3596938;39;20767;-75
2021/05/10 06:40:12;;;;;;;4.30;2.70;;;;;;;;;;3606969;39;21241;-75
2021/05/10 06:42:38;;;;;;;3.93;2.57;;;;;;;;;;3605484;39;20397;-75
2021/05/10 06:45:06;;;;;;;2.97;2.67;;;;;;;;;;3586951;39;21133;-75
2021/05/10 06:47:33;;;;;;;2.43;2.23;;;;;;;;;;3599903;39;20474;-75
2021/05/10 06:49:59;;;;;;;3.90;2.90;;;;;;;;;;3609073;39;20420;-75
2021/05/10 06:52:25;;;;;;;4.70;2.20;;;;;;;;;;3613728;39;20401;-74
2021/05/10 06:54:51;;;;;;;4.77;3.30;;;;;;;;;;3613972;39;20417;-75
2021/05/10 06:57:17;;;;;;;5.50;3.10;;;;;;;;;;3610575;39;20751;-74
2021/05/10 06:59:44;;;;;;;3.50;2.20;;;;;;;;;;3605180;39;20413;-75
2021/05/10 07:02:11;;;;;;;4.47;2.90;;;;;;;;;;3605100;39;21248;-76
2021/05/10 07:04:37;;;;;;;2.50;2.30;;;;;;;;;;3613715;39;20405;-76
2021/05/10 07:07:03;;;;;;;6.10;2.83;;;;;;;;;;3604493;39;20740;-75
2021/05/10 07:09:29;;;;;;;6.53;3.33;;;;;;;;;;3615444;39;20415;-75
2021/05/10 07:11:55;;;;;;;6.97;2.67;;;;;;;;;;3604957;39;21050;-75
2021/05/10 07:14:22;;;;;;;5.70;3.10;;;;;;;;;;3606414;39;20424;-75
2021/05/10 07:16:48;;;;;;;4.77;2.63;;;;;;;;;;3614819;39;20426;-75
2021/05/10 07:19:14;;;;;;;2.87;2.63;;;;;;;;;;3607527;39;20421;-75
2021/05/10 07:21:40;;;;;;;3.90;3.60;;;;;;;;;;3606606;39;20398;-75
2021/05/10 07:24:06;;;;;;;5.03;4.57;;;;;;;;;;3607059;39;20908;-75
2021/05/10 07:26:35;;;;;;;3.70;3.10;;;;;;;;;;3609969;39;20638;-76
2021/05/10 07:29:01;;;;;;;4.80;4.40;;;;;;;;;;3616304;39;20408;-74
2021/05/10 07:31:28;;;;;;;4.00;3.70;;;;;;;;;;3616927;39;20388;-75
2021/05/10 07:33:54;;;;;;;5.03;4.70;;;;;;;;;;3606923;39;20409;-76
2021/05/10 07:36:20;;;;;;;4.77;4.47;;;;;;;;;;3606787;39;20424;-75
2021/05/10 07:38:46;;;;;;;8.20;4.63;;;;;;;;;;3616861;39;20425;-75
2021/05/10 07:41:12;;;;;;;4.30;3.90;;;;;;;;;;3616225;39;20798;-75
2021/05/10 07:43:38;;;;;;;6.70;4.20;;;;;;;;;;3606770;39;20478;-74
2021/05/10 07:46:04;;;;;;;6.13;4.03;;;;;;;;;;3616721;39;20524;-74
2021/05/10 07:48:30;;;;;;;4.30;4.00;;;;;;;;;;3604201;39;20857;-75
2021/05/10 07:50:57;;;;;;;3.40;2.93;;;;;;;;;;3609462;39;20690;-74
2021/05/10 07:53:23;;;;;;;3.10;2.90;;;;;;;;;;3607108;39;20405;-74
2021/05/10 07:55:50;;;;;;;5.33;3.20;;;;;;;;;;3614973;39;20477;-74
2021/05/10 07:58:20;;;;;;;2.93;2.73;;;;;;;;;;3610985;39;20458;-76
2021/05/10 08:00:47;;;;;;;2.87;1.90;;;;;;;;;;3611122;39;20526;-76
2021/05/10 08:03:16;;;;;;;8.53;2.50;;;;;;;;;;3596371;39;20452;-75
2021/05/10 08:05:45;;;;;;;7.37;2.70;;;;;;;;;;3602560;39;20406;-75
2021/05/10 08:08:13;;;;;;;2.70;1.83;;;;;;;;;;3614357;39;20841;-75
2021/05/10 08:10:39;;;;;;;3.33;2.33;;;;;;;;;;3614313;39;20380;-74
2021/05/10 08:13:06;;;;;;;4.70;2.60;;;;;;;;;;3611555;39;20421;-74
2021/05/10 08:15:32;;;;;;;2.40;2.20;;;;;;;;;;3605131;39;20422;-74
2021/05/10 08:17:58;;;;;;;2.33;2.13;;;;;;;;;;3612942;39;20436;-74
2021/05/10 08:20:24;;;;;;;2.03;1.73;;;;;;;;;;3603068;39;20405;-74
2021/05/10 08:22:50;;;;;;;2.63;2.03;;;;;;;;;;3611426;39;20472;-74
2021/05/10 08:25:16;;;;;;;3.20;1.83;;;;;;;;;;3611898;39;20411;-75
2021/05/10 08:27:43;;;;;;;2.80;1.93;;;;;;;;;;3609770;39;20503;-74
2021/05/10 08:30:10;;;;;;;4.27;2.00;;;;;;;;;;3605629;39;20393;-75
2021/05/10 08:32:36;;;;;;;2.40;1.93;;;;;;;;;;3596489;39;20533;-74
2021/05/10 08:35:03;;;;;;;4.63;1.93;;;;;;;;;;3609928;39;20419;-74
2021/05/10 08:37:29;;;;;;;1.77;1.63;;;;;;;;;;3606997;39;20512;-75
2021/05/10 08:39:56;;;;;;;6.40;1.77;;;;;;;;;;3607259;39;20414;-75
2021/05/10 08:42:22;;;;;;;4.20;1.67;;;;;;;;;;3606399;39;20436;-76
2021/05/10 08:44:49;;;;;;;1.30;1.20;;;;;;;;;;3597660;39;20425;-74
2021/05/10 08:47:15;;;;;;;2.63;1.70;;;;;;;;;;3601726;39;20414;-74
2021/05/10 08:49:41;;;;;;;6.77;1.47;;;;;;;;;;3607014;39;20567;-74
2021/05/10 08:52:07;;;;;;;3.00;1.40;;;;;;;;;;3599400;39;20465;-75
2021/05/10 08:54:33;;;;;;;2.03;1.87;;;;;;;;;;3601691;39;20424;-74
2021/05/10 08:57:01;;;;;;;2.17;1.33;;;;;;;;;;3600296;39;20506;-75
2021/05/10 08:59:27;;;;;;;3.70;1.43;;;;;;;;;;3608656;39;20397;-75
2021/05/10 09:02:00;;;;;;;5.07;1.80;;;;;;;;;;3608946;39;20469;-75
2021/05/10 09:04:34;;;;;;;4.23;1.37;;;;;;;;;;3604441;39;20605;-75
2021/05/10 09:07:17;;;;;;;1.73;1.30;;;;;;;;;;3610892;39;20401;-74
2021/05/10 09:10:00;;;;;;;4.13;1.20;;;;;;;;;;3606114;39;20445;-75
2021/05/10 09:12:45;;;;;;;1.57;1.47;;;;;;;;;;3606625;39;20436;-75
2021/05/10 09:15:26;;;;;;;2.17;1.17;;;;;;;;;;3606790;39;21073;-74
2021/05/10 09:17:57;;;;;;;2.30;1.20;;;;;;;;;;3605323;39;20566;-75
2021/05/10 09:20:24;;;;;;;7.50;1.50;;;;;;;;;;3610109;39;20514;-75
2021/05/10 09:22:54;;;;;;;5.50;1.73;;;;;;;;;;3605048;39;20421;-74
2021/05/10 09:25:28;;;;;;;1.33;1.20;;;;;;;;;;3600663;39;20402;-75
2021/05/10 09:28:08;;;;;;;3.37;1.80;;;;;;;;;;3593848;39;21189;-74
2021/05/10 09:30:35;;;;;;;1.37;1.07;;;;;;;;;;3597335;39;21059;-74
2021/05/10 09:33:01;;;;;;;4.80;1.23;;;;;;;;;;3609248;39;20535;-74
2021/05/10 09:35:31;;;;;;;1.33;1.23;;;;;;;;;;3609372;39;20453;-74
2021/05/10 09:38:05;;;;;;;1.43;1.33;;;;;;;;;;3598255;39;20424;-73
2021/05/10 09:40:50;;;;;;;0.90;0.90;;;19.70;99.90;;;;;;3601019;39;20440;-74
2021/05/10 09:43:17;;;;;;;1.90;1.10;;;;;;;;;;3599837;39;20864;-74
2021/05/10 09:45:45;;;;;;;2.10;1.00;;;;;;;;;;3601689;39;20830;-75
2021/05/10 09:48:12;;;;;;;1.63;1.53;;;;;;;;;;3602245;39;20514;-75
2021/05/10 09:50:42;;;;;;;4.70;1.57;;;;;;;;;;3598180;39;20849;-75
2021/05/10 09:53:13;;;;;;;4.57;1.60;;;;;;;;;;3599697;39;20425;-75
2021/05/10 09:55:45;;;;;;;2.00;1.80;;;;;;;;;;3587975;39;20399;-75
2021/05/10 09:58:11;;;;;;;2.20;1.03;;;;;;;;;;3596268;39;20422;-74
2021/05/10 10:00:38;;;;;;;1.97;1.63;;;;;;;;;;3599461;39;20397;-75
2021/05/10 10:03:06;;;;;;;1.83;1.03;;;;;;;;;;3587571;39;20915;-74
2021/05/10 10:05:33;;;;;;;2.73;1.10;;;;;;;;;;3592177;39;20410;-75
2021/05/10 10:08:00;;;;;;;3.17;1.87;;;;;;;;;;3597398;39;20410;-74
2021/05/10 10:10:26;;;;;;;1.67;1.47;;;;;;;;;;3582611;39;20800;-74
2021/05/10 10:12:52;;;;;;;1.80;1.70;;;;;;;;;;3596149;39;20838;-74
2021/05/10 10:15:18;;;;;;;3.87;1.80;;;;;;;;;;3588984;39;20700;-74
2021/05/10 10:17:46;;;;;;;2.17;1.97;;;;;;;;;;3598143;39;20430;-74
2021/05/10 10:20:13;;;;;;;0.90;0.90;;;;;;;;;;3599307;39;20399;-74
2021/05/10 10:22:41;;;;;;;1.17;1.17;;;;;;;;;;3599496;39;20434;-74
2021/05/10 10:25:08;;;;;;;1.30;1.20;;;;;;;;;;3596964;39;20803;-75
2021/05/10 10:27:35;;;;;;;1.73;1.00;;;;;;;;;;3599561;39;20410;-74
2021/05/10 10:30:02;;;;;;;2.00;1.30;;;;;;;;;;3575664;39;20407;-74
2021/05/10 10:32:28;;;;;;;3.90;1.27;;;;;;;;;;3599955;39;20411;-74
2021/05/10 10:34:54;;;;;;;0.80;0.80;;;;;;;;;;3587424;39;20462;-74
2021/05/10 10:37:24;;;;;;;1.23;1.13;;;;;;;;;;3588587;39;20442;-74
2021/05/10 10:39:56;;;;;;;2.00;1.20;;;;;;;;;;3589739;39;20403;-74
2021/05/10 10:42:30;;;;;;;1.70;0.83;;;;;;;;;;3597599;39;20419;-74
2021/05/10 10:44:57;;;;;;;0.70;0.70;;;;;;;;;;3581486;39;20399;-74
2021/05/10 10:47:46;;;;;;;1.27;1.10;;;;;;;;;;3598038;39;20438;-74
2021/05/10 10:50:13;;;;;;;1.00;0.90;;;;;;;;;;3600646;39;20406;-74
2021/05/10 10:52:47;;;;;;;1.73;1.20;;;;;;;;;;3582771;39;20413;-74
2021/05/10 10:55:18;;;;;;;1.30;1.00;;;;;;;;;;3597033;39;20469;-74
2021/05/10 10:57:44;;;;;;;1.47;1.10;;;;;;;;;;3597622;39;20422;-74
2021/05/10 11:00:14;;;;;;;3.03;1.23;;;;;;;;;;3596593;39;20482;-74
2021/05/10 11:02:46;;;;;;;2.80;1.90;;;;;;;;;;3590712;39;21092;-74
2021/05/10 11:05:21;;;;;;;1.20;1.10;;;;;;;;;;3598007;39;20399;-74
2021/05/10 11:07:47;;;;;;;2.93;1.07;;;;;;;;;;3604889;39;20434;-74
2021/05/10 11:10:33;;;;;;;1.47;1.37;;;;;;;;;;3595221;39;20441;-75
2021/05/10 11:13:00;;;;;;;1.63;1.50;;;;;;;;;;3597037;39;20910;-74
2021/05/10 11:15:38;;;;;;;2.30;2.20;;;;;;;;;;3579919;39;20431;-74
2021/05/10 11:18:05;;;;;;;2.87;2.67;;;;;;;;;;3597869;39;20697;-74
2021/05/10 11:20:38;;;;;;;0.97;0.97;;;;;;;;;;3590708;39;20832;-74
2021/05/10 11:23:27;;;;;;;1.57;1.40;;;;;;;;;;3597863;39;20417;-74
2021/05/10 11:25:54;;;;;;;2.10;1.20;;;;;;;;;;3593346;39;20874;-74
2021/05/10 11:28:27;;;;;;;2.80;1.50;;;;;;;;;;3590747;39;20433;-74
2021/05/10 11:31:04;;;;;;;3.90;1.50;;;;;;;;;;3587997;39;20419;-74
2021/05/10 11:33:49;;;;;;;1.60;1.40;;;;;;;;;;3581786;39;20438;-74
2021/05/10 11:36:27;;;;;;;1.50;1.40;;;;;;;;;;3597323;39;20411;-74
2021/05/10 11:38:53;;;;;;;3.67;2.70;;;;;;;;;;3597619;39;20410;-73
2021/05/10 11:41:27;;;;;;;3.87;2.60;;;;;;;;;;3593812;39;20431;-74
2021/05/10 11:43:57;;;;;;;2.33;2.23;;;;;;;;;;3597078;39;20500;-74
2021/05/10 11:46:33;;;;;;;2.00;1.77;;;;;;;;;;3588359;39;20418;-74
2021/05/10 11:48:59;;;;;;;2.27;2.17;;;;;;;;;;3596598;39;20432;-74
2021/05/10 11:51:25;;;;;;;2.60;2.40;;;;;;;;;;3604494;39;20380;-74
2021/05/10 11:53:59;;;;;;;1.93;1.83;;;;;;;;;;3597513;39;20455;-75
2021/05/10 11:56:29;;;;;;;5.63;2.30;;;;;;;;;;3597723;39;20804;-75
2021/05/10 11:59:01;;;;;;;2.83;2.33;;;;;;;;;;3607317;39;20505;-75
2021/05/10 12:01:31;;;;;;;2.37;1.77;;;;;;;;;;3602939;39;20433;-75
2021/05/10 12:03:57;;;;;;;1.70;1.60;;;;;;;;;;3604860;39;20519;-75
2021/05/10 12:06:30;;;;;;;1.53;1.43;;;;;;;;;;3616845;39;20416;-74
2021/05/10 12:08:57;;;;;;;1.63;1.50;;;;;;;;;;3602946;39;20502;-74
2021/05/10 12:11:24;;;;;;;1.60;1.50;;;;;;;;;;3608152;39;20494;-75
2021/05/10 12:13:50;;;;;;;5.50;2.27;;;;;;;;;;3594998;39;20788;-74
2021/05/10 12:16:16;;;;;;;1.53;1.43;;;;;;;;;;3604855;39;20432;-74
2021/05/10 12:18:55;;;;;;;2.00;1.70;;;;;;;;;;3615358;39;21244;-74
2021/05/10 12:21:21;;;;;;;2.00;1.50;;;;;;;;;;3610377;39;20431;-76
2021/05/10 12:23:47;;;;;;;1.60;1.50;;;;;;;;;;3614253;39;20465;-75
2021/05/10 12:26:14;;;;;;;1.50;1.40;;;;;;;;;;3611995;39;20404;-74
2021/05/10 12:28:40;;;;;;;1.67;1.57;;;;;;;;;;3600867;39;21637;-74
2021/05/10 12:31:07;;;;;;;3.00;1.93;;;;;;;;;;3609916;39;21083;-74
2021/05/10 12:33:33;;;;;;;2.80;1.50;;;;;;;;;;3605043;39;20420;-75
2021/05/10 12:36:06;;;;;;;2.17;1.30;;;;;;;;;;3610139;39;20894;-75
2021/05/10 12:38:37;;;;;;;2.93;2.70;;;;;;;;;;3599010;39;20848;-75
2021/05/10 12:41:04;;;;;;;1.80;1.70;;;;;;;;;;3607912;39;20442;-75
2021/05/10 12:43:30;;;;;;;1.50;1.40;;;;;;;;;;3611930;39;21613;-77
2021/05/10 12:45:56;;;;;;;1.40;1.23;;;;;;;;;;3605117;39;20408;-74
2021/05/10 12:48:23;;;;;;;5.67;1.97;;;;;;;;;;3599438;39;20433;-75
2021/05/10 12:50:52;;;;;;;2.60;1.70;;;;;;;;;;3608039;39;20461;-74
2021/05/10 12:53:37;;;;;;;3.70;2.03;;;;;;;;;;3617126;39;20498;-74
2021/05/10 12:56:03;;;;;;;4.90;2.77;;;;;;;;;;3611247;39;20803;-74
2021/05/10 12:58:33;;;;;;;5.40;2.70;;;;;;;;;;3612259;39;20401;-74
2021/05/10 13:01:09;;;;;;;3.20;2.30;;;;;;;;;;3599748;39;20775;-75
2021/05/10 13:03:35;;;;;;;3.90;2.30;;;;;;;;;;3595701;39;20512;-75
2021/05/10 13:06:02;;;;;;;2.30;2.10;;;;;;;;;;3598211;39;20416;-74
2021/05/10 13:08:39;;;;;;;3.97;2.60;;;;;;;;;;3602930;39;20418;-75
2021/05/10 13:11:05;;;;;;;4.03;2.60;;;;;;;;;;3612503;39;20386;-75
2021/05/10 13:14:08;;;;;;;5.40;2.43;;;;;;;;;;3614183;39;20397;-75
2021/05/10 13:16:49;;;;;;;2.30;2.10;;;;;;;;;;3599874;39;20984;-75
2021/05/10 13:32:47;;;;;;;2.20;2.00;;;;;;;;;;3592513;39;20411;-74
2021/05/10 13:35:32;;;;;;;2.77;2.33;;;;;;;;;;3591533;39;20412;-74
2021/05/10 13:38:02;;;;;;;3.30;2.57;;;;;;;;;;3577139;39;21206;-74
2021/05/10 13:40:28;;;;;;;5.03;2.77;;;;;;;;;;3591019;39;20408;-75
2021/05/10 13:42:59;;;;;;;2.97;2.77;;;;;;;;;;3588953;39;20413;-75
2021/05/10 13:45:25;;;;;;;3.60;2.27;;;;;;;;;;3590519;39;20410;-74
2021/05/10 13:47:51;;;;;;;3.37;2.20;;;;;;;;;;3579668;39;20469;-75
2021/05/10 13:50:17;;;;;;;1.63;1.53;;;;;;;;;;3581677;39;20430;-74
2021/05/10 13:52:43;;;;;;;1.80;1.60;;;;;;;;;;3571732;39;20729;-74
2021/05/10 13:55:10;;;;;;;2.07;1.87;;;;;;;;;;3583098;39;20451;-74
2021/05/10 13:57:36;;;;;;;1.60;1.50;;;;;;;;;;3587701;39;20786;-74
2021/05/10 14:00:02;;;;;;;2.00;1.30;;;;;;;;;;3592698;39;20429;-75
2021/05/10 14:02:28;;;;;;;2.00;1.80;;;;;;;;;;3604923;39;20418;-75
2021/05/10 14:04:54;;;;;;;2.80;1.40;;;;;;;;;;3617841;39;20420;-75
2021/05/10 14:07:20;;;;;;;1.67;1.23;;;;;;;;;;3606193;39;20884;-75
2021/05/10 14:09:46;;;;;;;1.87;1.40;;;;;;;;;;3599353;39;20852;-75
2021/05/10 14:12:12;;;;;;;1.80;1.50;;;;;;;;;;3607165;39;20831;-75
2021/05/10 14:14:38;;;;;;;4.23;1.97;;;;;;;;;;3614169;39;20544;-75
2021/05/10 14:17:04;;;;;;;2.50;2.17;;;;;;;;;;3615138;39;20429;-75
2021/05/10 14:19:31;;;;;;;1.70;1.60;;;;;;;;;;3605865;39;20499;-75
2021/05/10 14:22:04;;;;;;;1.53;1.43;;;;;;;;;;3604299;39;20756;-75
2021/05/10 14:24:31;;;;;;;2.00;1.90;;;;;;;;;;3605394;39;20445;-75
2021/05/10 14:26:57;;;;;;;1.27;1.17;;;;;;;;;;3614424;39;20409;-75
2021/05/10 14:29:23;;;;;;;1.30;1.20;;;;;;;;;;3607317;39;20465;-75
2021/05/10 14:31:49;;;;;;;3.80;1.73;;;;;;;;;;3598557;39;20421;-75
2021/05/10 14:34:15;;;;;;;2.80;1.40;;;;;;;;;;3612660;39;20465;-75
2021/05/10 14:36:42;;;;;;;6.23;1.40;;;;;;;;;;3614050;39;20496;-75
2021/05/10 14:39:09;;;;;;;2.10;1.40;;;;;;;;;;3614203;39;20803;-75
2021/05/10 14:41:36;;;;;;;1.67;1.13;;;;;;;;;;3605061;39;20437;-75
2021/05/10 14:44:05;;;;;;;4.10;1.27;;;;;;;;;;3600057;39;20459;-74
2021/05/10 14:46:31;;;;;;;5.83;1.80;;;;;;;;;;3615089;39;20444;-75
2021/05/10 14:48:57;;;;;;;1.27;1.17;;;;;;;;;;3614106;39;20457;-76
2021/05/10 14:51:23;;;;;;;1.70;1.30;;;;;;;;;;3612711;39;20428;-76
2021/05/10 14:53:50;;;;;;;1.27;1.13;;;;;;;;;;3611179;39;20414;-75
2021/05/10 14:56:17;;;;;;;2.40;1.47;;;;;;;;;;3606416;39;20406;-75
2021/05/10 14:58:43;;;;;;;2.97;2.40;;;;;;;;;;3614679;39;20456;-74
2021/05/10 15:01:09;;;;;;;2.20;1.50;;;;;;;;;;3606577;39;20405;-74
2021/05/10 15:03:35;;;;;;;4.03;1.60;;;;;;;;;;3614166;39;20496;-75
2021/05/10 15:06:01;;;;;;;1.63;1.53;;;;;;;;;;3613653;39;20876;-75